Station History

Weather Underground - logo

Station Historical Data
Daily Summary for July 19, 2017 Units:  English    Metric   Both
« Previous Day
Next Day »
Daily Weekly Monthly Yearly Custom
  High: Low: Average:
Temperature: TemperatureF °F 63.2 °F 80.1 °F
Dew Point: DewpointF °F 51.0 °F 56.6 °F
Humidity: Humidity % 22 % 49 %
Wind Speed: WindSpeedMPH mph 0.0 mph 1.6 mph
Wind Gust: WindSpeedGustMPH mph - -
Wind:- - SW
Pressure: PressureIn in 29.79 in -
Precipitation: 0.00 in    
Historical Graphs
 
 
Tabular Data for July 19, 2017
Time Temperature Dew Point Pressure Wind Wind Speed Wind Gust Humidity Rainfall Rate (Hourly)
TemperatureF °F DewpointF °F PressureIn in Calm     Humidity % HourlyPrecipIn in
00:04 74.4 °F 58.2 °F 29.84 in Calm     57 % 0.00 in
00:09 73.9 °F 57.7 °F 29.84 in Calm     57 % 0.00 in
00:14 73.5 °F 58.3 °F 29.84 in Calm     59 % 0.00 in
00:19 72.9 °F 58.2 °F 29.84 in Calm     60 % 0.00 in
00:24 72.6 °F 58.8 °F 29.84 in SE 1.2 mph 1.2 mph 62 % 0.00 in
00:29 72.2 °F 58.9 °F 29.85 in Calm     63 % 0.00 in
00:34 72.0 °F 59.2 °F 29.85 in SE 1.2 mph   64 % 0.00 in
00:35 71.9 °F 59.5 °F 29.85 in Calm     65 % 0.00 in
00:41 71.6 °F 59.6 °F 29.85 in Calm     66 % 0.00 in
00:42 71.6 °F 59.6 °F 29.85 in Calm     66 % 0.00 in
00:47 71.4 °F 59.4 °F 29.86 in Calm     66 % 0.00 in
00:52 71.4 °F 59.9 °F 29.86 in Calm     67 % 0.00 in
00:57 71.1 °F 59.6 °F 29.86 in Calm     67 % 0.00 in
01:02 70.8 °F 59.7 °F 29.85 in Calm     68 % 0.00 in
01:07 70.5 °F 59.8 °F 29.86 in Calm     69 % 0.00 in
01:12 70.3 °F 60.1 °F 29.86 in Calm   0.2 mph 70 % 0.00 in
01:13 70.2 °F 60.0 °F 29.86 in SE 1.2 mph   70 % 0.00 in
01:18 70.1 °F 59.9 °F 29.86 in Calm     70 % 0.00 in
01:24 69.8 °F 60.0 °F 29.86 in Calm     71 % 0.00 in
01:29 69.4 °F 60.0 °F 29.86 in Calm     72 % 0.00 in
01:34 69.1 °F 59.7 °F 29.86 in Calm     72 % 0.00 in
01:39 68.8 °F 59.8 °F 29.86 in Calm     73 % 0.00 in
01:44 68.6 °F 60.0 °F 29.86 in Calm     74 % 0.00 in
01:49 68.4 °F 59.8 °F 29.86 in Calm     74 % 0.00 in
01:54 68.3 °F 59.7 °F 29.86 in Calm     74 % 0.00 in
01:59 68.2 °F 59.2 °F 29.86 in SE 1.2 mph 1.2 mph 73 % 0.00 in
02:04 68.2 °F 58.8 °F 29.87 in SE 1.2 mph   72 % 0.00 in
02:09 68.3 °F 58.9 °F 29.86 in Calm     72 % 0.00 in
02:14 68.1 °F 59.1 °F 29.86 in Calm     73 % 0.00 in
02:19 68.1 °F 59.9 °F 29.86 in Calm     75 % 0.00 in
02:24 68.1 °F 59.9 °F 29.86 in Calm     75 % 0.00 in
02:29 68.0 °F 58.6 °F 29.86 in Calm     72 % 0.00 in
02:34 67.9 °F 58.9 °F 29.86 in Calm     73 % 0.00 in
02:39 67.9 °F 58.9 °F 29.86 in Calm     73 % 0.00 in
02:44 67.7 °F 58.3 °F 29.86 in Calm     72 % 0.00 in
02:49 67.5 °F 58.5 °F 29.86 in Calm     73 % 0.00 in
02:54 67.3 °F 58.7 °F 29.87 in Calm     74 % 0.00 in
02:59 66.9 °F 58.3 °F 29.87 in Calm     74 % 0.00 in
03:04 66.8 °F 58.6 °F 29.87 in Calm     75 % 0.00 in
03:09 66.6 °F 58.4 °F 29.87 in Calm     75 % 0.00 in
03:14 66.4 °F 58.6 °F 29.87 in Calm     76 % 0.00 in
03:19 66.2 °F 58.4 °F 29.87 in Calm     76 % 0.00 in
03:24 66.2 °F 59.1 °F 29.87 in Calm     78 % 0.00 in
03:29 66.1 °F 58.7 °F 29.87 in Calm     77 % 0.00 in
03:34 66.2 °F 58.4 °F 29.87 in Calm     76 % 0.00 in
03:39 66.4 °F 58.6 °F 29.87 in Calm     76 % 0.00 in
03:44 66.3 °F 58.5 °F 29.87 in Calm     76 % 0.00 in
03:49 66.2 °F 58.4 °F 29.87 in Calm     76 % 0.00 in
03:54 66.0 °F 58.2 °F 29.87 in Calm     76 % 0.00 in
03:59 65.9 °F 58.1 °F 29.87 in Calm     76 % 0.00 in
04:04 65.7 °F 57.9 °F 29.87 in Calm     76 % 0.00 in
04:09 65.5 °F 57.7 °F 29.87 in Calm     76 % 0.00 in
04:14 65.3 °F 57.9 °F 29.88 in Calm     77 % 0.00 in
04:19 65.1 °F 58.1 °F 29.88 in Calm     78 % 0.00 in
04:24 64.9 °F 57.9 °F 29.88 in SE 1.2 mph   78 % 0.00 in
04:29 64.7 °F 57.3 °F 29.88 in Calm     77 % 0.00 in
04:34 64.6 °F 57.6 °F 29.88 in Calm     78 % 0.00 in
04:39 64.6 °F 57.2 °F 29.88 in Calm     77 % 0.00 in
04:44 64.5 °F 57.1 °F 29.88 in Calm     77 % 0.00 in
04:49 64.4 °F 57.0 °F 29.88 in Calm     77 % 0.00 in
04:54 64.3 °F 56.6 °F 29.88 in Calm     76 % 0.00 in
04:59 64.2 °F 56.8 °F 29.89 in Calm     77 % 0.00 in
05:04 64.0 °F 55.9 °F 29.89 in SE 1.2 mph 1.2 mph 75 % 0.00 in
05:10 64.0 °F 56.3 °F 29.89 in SE 1.2 mph 1.2 mph 76 % 0.00 in
05:15 63.8 °F 56.4 °F 29.89 in Calm     77 % 0.00 in
05:20 63.8 °F 56.4 °F 29.89 in Calm     77 % 0.00 in
05:25 63.7 °F 57.1 °F 29.89 in Calm     79 % 0.00 in
05:30 63.5 °F 56.5 °F 29.90 in Calm     78 % 0.00 in
05:35 63.4 °F 56.4 °F 29.90 in Calm     78 % 0.00 in
05:40 63.3 °F 56.3 °F 29.90 in Calm     78 % 0.00 in
05:45 63.3 °F 56.3 °F 29.90 in Calm     78 % 0.00 in
05:50 63.2 °F 56.2 °F 29.90 in Calm     78 % 0.00 in
05:55 63.2 °F 55.9 °F 29.90 in Calm     77 % 0.00 in
06:00 63.2 °F 55.9 °F 29.90 in SE 1.2 mph 1.2 mph 77 % 0.00 in
06:05 63.2 °F 55.9 °F 29.90 in Calm     77 % 0.00 in
06:10 63.3 °F 56.0 °F 29.91 in SE 1.2 mph 1.2 mph 77 % 0.00 in
06:15 63.4 °F 56.1 °F 29.91 in Calm     77 % 0.00 in
06:20 63.5 °F 56.2 °F 29.92 in SE 1.2 mph   77 % 0.00 in
06:25 63.5 °F 56.2 °F 29.91 in SE 1.2 mph   77 % 0.00 in
06:30 63.5 °F 56.2 °F 29.92 in Calm     77 % 0.00 in
06:35 63.5 °F 56.2 °F 29.92 in Calm     77 % 0.00 in
06:36 63.5 °F 56.2 °F 29.92 in Calm     77 % 0.00 in
06:41 63.7 °F 56.4 °F 29.92 in Calm     77 % 0.00 in
06:46 64.0 °F 56.6 °F 29.92 in Calm     77 % 0.00 in
06:51 64.3 °F 56.9 °F 29.92 in Calm     77 % 0.00 in
06:56 64.7 °F 56.6 °F 29.92 in Calm     75 % 0.00 in
07:01 65.7 °F 57.9 °F 29.92 in Calm     76 % 0.00 in
07:06 66.8 °F 58.6 °F 29.92 in Calm     75 % 0.00 in
07:11 67.7 °F 58.0 °F 29.92 in Calm     71 % 0.00 in
07:16 68.5 °F 58.3 °F 29.92 in SE 1.2 mph   70 % 0.00 in
07:21 69.2 °F 58.6 °F 29.93 in Calm     69 % 0.00 in
07:26 69.7 °F 57.4 °F 29.93 in SSE 2.3 mph 2.3 mph 65 % 0.00 in
07:31 70.0 °F 57.3 °F 29.93 in ENE 3.5 mph 3.5 mph 64 % 0.00 in
07:36 70.1 °F 56.5 °F 29.93 in ENE 3.5 mph 3.5 mph 62 % 0.00 in
07:41 70.4 °F 56.8 °F 29.93 in East 3.5 mph 3.5 mph 62 % 0.00 in
07:46 70.7 °F 56.6 °F 29.93 in East 2.3 mph 2.3 mph 61 % 0.00 in
07:51 71.1 °F 56.5 °F 29.93 in East 2.3 mph 2.3 mph 60 % 0.00 in
07:56 71.3 °F 56.2 °F 29.93 in East 2.3 mph 2.3 mph 59 % 0.00 in
08:01 71.9 °F 56.8 °F 29.93 in East 2.3 mph 2.3 mph 59 % 0.00 in
08:06 72.4 °F 56.3 °F 29.93 in East 3.5 mph 3.5 mph 57 % 0.00 in
08:12 72.6 °F 55.5 °F 29.93 in SE 4.6 mph 4.6 mph 55 % 0.00 in
08:17 72.9 °F 56.8 °F 29.93 in ENE 2.3 mph 2.3 mph 57 % 0.00 in
08:22 73.7 °F 56.5 °F 29.93 in Calm   0.2 mph 55 % 0.00 in
08:27 74.2 °F 56.0 °F 29.93 in East 2.3 mph 2.3 mph 53 % 0.00 in
08:31 74.8 °F 55.5 °F 29.93 in East 2.3 mph 2.3 mph 51 % 0.00 in
08:37 75.3 °F 55.9 °F 29.93 in ESE 3.5 mph 3.5 mph 51 % 0.00 in
08:42 75.9 °F 55.9 °F 29.93 in ESE 3.5 mph 3.5 mph 50 % 0.00 in
08:47 76.2 °F 55.6 °F 29.93 in East 3.5 mph 3.5 mph 49 % 0.00 in
08:52 76.6 °F 56.0 °F 29.93 in East 3.5 mph 3.5 mph 49 % 0.00 in
08:57 76.9 °F 55.7 °F 29.93 in SSE 2.3 mph 2.3 mph 48 % 0.00 in
09:02 77.4 °F 56.7 °F 29.93 in South 1.2 mph 1.2 mph 49 % 0.00 in
09:07 77.7 °F 54.7 °F 29.93 in SSE 3.5 mph 3.5 mph 45 % 0.00 in
09:12 77.8 °F 54.8 °F 29.93 in SE 5.8 mph 5.8 mph 45 % 0.00 in
09:17 78.2 °F 55.1 °F 29.93 in SE 3.5 mph 3.5 mph 45 % 0.00 in
09:22 78.6 °F 54.9 °F 29.93 in South 4.6 mph 4.6 mph 44 % 0.00 in
09:27 79.0 °F 55.2 °F 29.93 in SE 1.2 mph 1.2 mph 44 % 0.00 in
09:37 79.8 °F 55.9 °F 29.93 in ENE 3.0 mph 3.0 mph 44 % 0.00 in
09:42 80.1 °F 54.3 °F 29.93 in South 3.5 mph 3.5 mph 41 % 0.00 in
09:47 80.6 °F 56.0 °F 29.93 in NNW 2.3 mph 2.3 mph 43 % 0.00 in
09:52 81.1 °F 55.8 °F 29.93 in NE 3.5 mph 3.5 mph 42 % 0.00 in
09:57 81.4 °F 56.1 °F 29.93 in East 4.6 mph 4.6 mph 42 % 0.00 in
10:02 81.9 °F 55.9 °F 29.93 in SW 2.3 mph 2.3 mph 41 % 0.00 in
10:07 82.1 °F 56.1 °F 29.93 in NE 3.5 mph 3.5 mph 41 % 0.00 in
10:12 82.1 °F 57.4 °F 29.93 in NNE 1.2 mph 1.2 mph 43 % 0.00 in
10:17 82.2 °F 58.1 °F 29.93 in East 2.3 mph 2.3 mph 44 % 0.00 in
10:22 82.6 °F 57.2 °F 29.93 in SW 1.2 mph 1.2 mph 42 % 0.00 in
10:27 82.6 °F 56.5 °F 29.93 in NNW 2.3 mph 2.3 mph 41 % 0.00 in
10:32 82.5 °F 55.0 °F 29.93 in ENE 3.5 mph 3.5 mph 39 % 0.00 in
10:37 83.1 °F 56.3 °F 29.93 in WNW 2.3 mph 2.3 mph 40 % 0.00 in
10:42 83.2 °F 55.7 °F 29.93 in NW 3.5 mph 3.5 mph 39 % 0.00 in
10:47 83.7 °F 57.5 °F 29.92 in NNW 2.0 mph 2.0 mph 41 % 0.00 in
10:52 84.3 °F 58.0 °F 29.92 in SSE 1.2 mph 1.2 mph 41 % 0.00 in
10:57 84.8 °F 56.4 °F 29.92 in SW 2.3 mph 2.3 mph 38 % 0.00 in
11:02 85.0 °F 57.3 °F 29.92 in NE 2.3 mph 2.3 mph 39 % 0.00 in
11:07 85.5 °F 59.1 °F 29.92 in WNW 2.3 mph 2.3 mph 41 % 0.00 in
11:12 85.8 °F 58.7 °F 29.92 in West 2.3 mph 2.3 mph 40 % 0.00 in
11:17 85.9 °F 60.1 °F 29.92 in West 2.3 mph 2.3 mph 42 % 0.00 in
11:22 86.5 °F 60.0 °F 29.92 in North 1.2 mph 1.2 mph 41 % 0.00 in
11:27 86.3 °F 58.4 °F 29.92 in NNW 3.5 mph 3.5 mph 39 % 0.00 in
11:32 86.5 °F 59.3 °F 29.92 in NNE 1.2 mph 1.2 mph 40 % 0.00 in
11:37 87.3 °F 57.8 °F 29.91 in ESE 3.5 mph 3.5 mph 37 % 0.00 in
11:42 87.1 °F 59.1 °F 29.91 in East 2.3 mph 2.3 mph 39 % 0.00 in
11:47 87.5 °F 58.8 °F 29.92 in SSE 3.5 mph 3.5 mph 38 % 0.00 in
11:52 87.8 °F 57.5 °F 29.91 in SE 3.5 mph 3.5 mph 36 % 0.00 in
11:57 87.8 °F 55.9 °F 29.91 in NNW 3.5 mph 3.5 mph 34 % 0.00 in
12:02 87.8 °F 56.7 °F 29.91 in NNW 3.5 mph 3.5 mph 35 % 0.00 in
12:07 88.3 °F 58.7 °F 29.91 in SE 2.0 mph 2.0 mph 37 % 0.00 in
12:12 88.6 °F 57.4 °F 29.91 in SE 2.3 mph 2.3 mph 35 % 0.00 in
12:17 88.5 °F 59.7 °F 29.91 in West 1.2 mph 1.2 mph 38 % 0.00 in
12:23 89.0 °F 58.6 °F 29.91 in NW 1.2 mph 1.2 mph 36 % 0.00 in
12:28 89.4 °F 57.3 °F 29.91 in NW 2.3 mph 2.3 mph 34 % 0.00 in
12:33 89.6 °F 57.5 °F 29.91 in SE 3.5 mph 3.5 mph 34 % 0.00 in
12:38 89.8 °F 57.7 °F 29.91 in NW 3.5 mph 3.5 mph 34 % 0.00 in
12:43 89.4 °F 57.3 °F 29.91 in North 1.2 mph 1.2 mph 34 % 0.00 in
12:48 90.1 °F 57.1 °F 29.91 in WSW 3.5 mph 3.5 mph 33 % 0.00 in
12:53 90.3 °F 58.1 °F 29.90 in South 1.2 mph 1.2 mph 34 % 0.00 in
12:58 91.0 °F 57.0 °F 29.90 in SE 2.3 mph 2.3 mph 32 % 0.00 in
13:03 91.8 °F 58.6 °F 29.90 in SE 2.3 mph 2.3 mph 33 % 0.00 in
13:08 91.8 °F 56.0 °F 29.90 in North 2.3 mph 2.3 mph 30 % 0.00 in
13:13 91.5 °F 59.2 °F 29.90 in ESE 1.2 mph 1.2 mph 34 % 0.00 in
13:18 91.7 °F 58.5 °F 29.90 in NE 3.5 mph 3.5 mph 33 % 0.00 in
13:23 91.6 °F 59.3 °F 29.90 in NNW 1.2 mph 1.2 mph 34 % 0.00 in
13:28 92.2 °F 58.9 °F 29.89 in West 1.2 mph 1.2 mph 33 % 0.00 in
13:33 92.6 °F 61.7 °F 29.89 in NNW 1.0 mph   36 % 0.00 in
13:38 92.3 °F 58.2 °F 29.89 in North 3.5 mph 3.5 mph 32 % 0.00 in
13:43 92.3 °F 60.7 °F 29.89 in NW 1.2 mph 1.2 mph 35 % 0.00 in
13:48 93.1 °F 58.0 °F 29.89 in NW 2.3 mph 2.3 mph 31 % 0.00 in
13:53 93.2 °F 57.2 °F 29.88 in WNW 3.5 mph 3.5 mph 30 % 0.00 in
13:58 93.4 °F 56.4 °F 29.88 in NW 3.5 mph 3.5 mph 29 % 0.00 in
14:03 93.6 °F 56.6 °F 29.88 in NW 3.5 mph 3.5 mph 29 % 0.00 in
14:08 93.6 °F 57.5 °F 29.88 in NW 3.5 mph 3.5 mph 30 % 0.00 in
14:13 93.5 °F 55.5 °F 29.88 in NW 3.5 mph 3.5 mph 28 % 0.00 in
14:18 93.9 °F 57.8 °F 29.87 in WNW 4.0 mph 4.0 mph 30 % 0.00 in
14:23 94.0 °F 55.9 °F 29.87 in NW 3.5 mph 3.5 mph 28 % 0.00 in
14:28 94.0 °F 55.9 °F 29.87 in ENE 3.5 mph 3.5 mph 28 % 0.00 in
14:33 94.4 °F 56.3 °F 29.87 in NW 4.6 mph 4.6 mph 28 % 0.00 in
14:38 94.5 °F 55.4 °F 29.87 in NW 3.5 mph 3.5 mph 27 % 0.00 in
14:43 94.3 °F 56.2 °F 29.86 in NW 2.3 mph 2.3 mph 28 % 0.00 in
14:48 94.3 °F 56.2 °F 29.86 in NW 4.6 mph 4.6 mph 28 % 0.00 in
14:53 94.1 °F 57.9 °F 29.86 in NW 3.5 mph 3.5 mph 30 % 0.00 in
14:58 94.4 °F 56.3 °F 29.86 in NW 3.0 mph 3.0 mph 28 % 0.00 in
15:03 94.5 °F 57.3 °F 29.85 in North 3.5 mph 3.5 mph 29 % 0.00 in
15:08 94.8 °F 55.6 °F 29.85 in West 4.6 mph 4.6 mph 27 % 0.00 in
15:13 94.9 °F 53.6 °F 29.85 in NW 4.6 mph 4.6 mph 25 % 0.00 in
15:18 95.0 °F 54.7 °F 29.85 in NW 4.0 mph 4.0 mph 26 % 0.00 in
15:23 94.8 °F 52.4 °F 29.85 in NNW 5.0 mph 5.0 mph 24 % 0.00 in
15:28 94.6 °F 53.3 °F 29.85 in NW 4.0 mph 4.0 mph 25 % 0.00 in
15:33 94.9 °F 54.7 °F 29.84 in WNW 3.0 mph 3.0 mph 26 % 0.00 in
15:38 95.0 °F 53.7 °F 29.84 in WNW 4.6 mph 4.6 mph 25 % 0.00 in
15:43 94.8 °F 52.4 °F 29.84 in North 3.5 mph 3.5 mph 24 % 0.00 in
15:48 94.8 °F 53.5 °F 29.84 in WNW 3.5 mph 3.5 mph 25 % 0.00 in
15:53 95.0 °F 51.4 °F 29.84 in NW 3.5 mph 3.5 mph 23 % 0.00 in
15:58 95.0 °F 54.7 °F 29.84 in WNW 3.0 mph 3.0 mph 26 % 0.00 in
16:03 95.1 °F 51.5 °F 29.84 in NW 3.5 mph 3.5 mph 23 % 0.00 in
16:09 95.6 °F 55.2 °F 29.83 in NW 3.5 mph 3.5 mph 26 % 0.00 in
16:14 95.8 °F 55.4 °F 29.83 in NW 2.3 mph 2.3 mph 26 % 0.00 in
16:18 96.2 °F 53.6 °F 29.83 in NNW 3.5 mph 3.5 mph 24 % 0.00 in
16:24 96.1 °F 52.3 °F 29.83 in NW 3.5 mph 3.5 mph 23 % 0.00 in
16:29 96.0 °F 51.0 °F 29.82 in NW 3.5 mph 3.5 mph 22 % 0.00 in
16:34 96.2 °F 52.4 °F 29.82 in SSW 4.6 mph 4.6 mph 23 % 0.00 in
16:39 96.3 °F 53.6 °F 29.82 in NW 3.5 mph 3.5 mph 24 % 0.00 in
16:44 96.3 °F 54.8 °F 29.82 in NW 3.5 mph 3.5 mph 25 % 0.00 in
16:49 96.7 °F 52.8 °F 29.81 in WSW 6.9 mph 6.9 mph 23 % 0.00 in
16:54 96.6 °F 56.1 °F 29.81 in NW 3.5 mph 3.5 mph 26 % 0.00 in
16:59 96.7 °F 54.0 °F 29.81 in NW 3.5 mph 3.5 mph 24 % 0.00 in
17:04 97.1 °F 55.4 °F 29.81 in WNW 2.3 mph 2.3 mph 25 % 0.00 in
17:09 97.3 °F 53.3 °F 29.81 in WNW 3.5 mph 3.5 mph 23 % 0.00 in
17:14 97.1 °F 54.3 °F 29.80 in WNW 3.5 mph 3.5 mph 24 % 0.00 in
17:19 96.9 °F 54.1 °F 29.80 in NW 2.3 mph 2.3 mph 24 % 0.00 in
17:24 97.1 °F 55.4 °F 29.80 in NW 2.3 mph 2.3 mph 25 % 0.00 in
17:29 96.8 °F 52.9 °F 29.80 in NNW 2.3 mph 2.3 mph 23 % 0.00 in
17:34 96.8 °F 54.1 °F 29.80 in NW 5.8 mph 5.8 mph 24 % 0.00 in
17:39 96.6 °F 53.9 °F 29.80 in WNW 3.5 mph 3.5 mph 24 % 0.00 in
17:44 96.4 °F 53.7 °F 29.80 in WNW 3.5 mph 3.5 mph 24 % 0.00 in
17:49 96.5 °F 54.9 °F 29.79 in NW 5.8 mph 5.8 mph 25 % 0.00 in
17:54 96.3 °F 54.8 °F 29.79 in NW 4.6 mph 4.6 mph 25 % 0.00 in
17:59 96.4 °F 54.8 °F 29.79 in WNW 3.5 mph 3.5 mph 25 % 0.00 in
18:04 96.2 °F 54.7 °F 29.79 in NNW 4.0 mph 4.0 mph 25 % 0.00 in
18:09 96.2 °F 53.6 °F 29.79 in WNW 3.5 mph 3.5 mph 24 % 0.00 in
18:14 96.2 °F 53.6 °F 29.79 in NW 2.3 mph 2.3 mph 24 % 0.00 in
18:19 96.2 °F 54.7 °F 29.79 in WNW 2.3 mph 2.3 mph 25 % 0.00 in
18:24 96.0 °F 56.6 °F 29.79 in WNW 3.5 mph 3.5 mph 27 % 0.00 in
18:29 95.6 °F 55.2 °F 29.79 in NW 2.3 mph 2.3 mph 26 % 0.00 in
18:34 95.5 °F 54.1 °F 29.79 in NW 2.3 mph 2.3 mph 25 % 0.00 in
18:39 95.5 °F 55.2 °F 29.79 in WNW 2.3 mph 2.3 mph 26 % 0.00 in
18:44 95.5 °F 55.2 °F 29.79 in NW 2.3 mph 2.3 mph 26 % 0.00 in
18:49 95.3 °F 55.0 °F 29.79 in NW 3.5 mph 3.5 mph 26 % 0.00 in
18:54 95.0 °F 54.7 °F 29.79 in NW 3.0 mph 3.0 mph 26 % 0.00 in
18:59 94.4 °F 56.3 °F 29.79 in NW 3.5 mph 3.5 mph 28 % 0.00 in
19:04 93.8 °F 55.8 °F 29.79 in NNW 2.3 mph 2.3 mph 28 % 0.00 in
19:09 93.1 °F 55.2 °F 29.80 in WNW 3.5 mph 3.5 mph 28 % 0.00 in
19:14 92.7 °F 55.8 °F 29.79 in NW 2.3 mph 2.3 mph 29 % 0.00 in
19:19 92.1 °F 55.3 °F 29.80 in NW 1.2 mph 1.2 mph 29 % 0.00 in
19:24 91.7 °F 56.8 °F 29.80 in WNW 1.2 mph 1.2 mph 31 % 0.00 in
19:29 91.2 °F 57.2 °F 29.80 in Calm   0.2 mph 32 % 0.00 in
19:34 90.7 °F 56.8 °F 29.80 in NW 1.2 mph 1.2 mph 32 % 0.00 in
19:39 90.2 °F 57.2 °F 29.80 in Calm     33 % 0.00 in
19:44 89.8 °F 56.9 °F 29.80 in WNW 1.2 mph   33 % 0.00 in
19:49 89.2 °F 57.2 °F 29.80 in Calm   0.1 mph 34 % 0.00 in
19:55 88.8 °F 58.4 °F 29.80 in NW 1.2 mph   36 % 0.00 in
20:00 88.4 °F 57.3 °F 29.81 in Calm     35 % 0.00 in
20:05 88.1 °F 57.8 °F 29.81 in Calm     36 % 0.00 in
20:10 87.7 °F 58.2 °F 29.81 in Calm     37 % 0.00 in
20:15 87.3 °F 57.1 °F 29.81 in NNW 1.2 mph 1.2 mph 36 % 0.00 in
20:20 86.9 °F 58.2 °F 29.81 in NW 1.2 mph 1.2 mph 38 % 0.00 in
20:25 86.5 °F 57.9 °F 29.81 in WNW 1.2 mph 1.2 mph 38 % 0.00 in
20:26 86.4 °F 57.8 °F 29.81 in West 1.2 mph   38 % 0.00 in
20:31 86.0 °F 57.4 °F 29.81 in WNW 1.2 mph 1.2 mph 38 % 0.00 in
20:36 85.5 °F 58.4 °F 29.82 in Calm     40 % 0.00 in
20:41 84.8 °F 57.1 °F 29.82 in Calm     39 % 0.00 in
20:46 84.6 °F 56.9 °F 29.82 in WNW 1.2 mph 1.2 mph 39 % 0.00 in
20:51 84.4 °F 58.1 °F 29.82 in WNW 1.2 mph   41 % 0.00 in
20:56 84.0 °F 57.1 °F 29.82 in Calm     40 % 0.00 in
21:01 83.7 °F 56.8 °F 29.83 in Calm     40 % 0.00 in
21:06 83.6 °F 58.1 °F 29.83 in Calm     42 % 0.00 in
21:11 83.2 °F 55.7 °F 29.83 in Calm     39 % 0.00 in
21:16 83.1 °F 55.6 °F 29.83 in Calm     39 % 0.00 in
21:21 83.0 °F 54.0 °F 29.84 in Calm   0.3 mph 37 % 0.00 in
21:26 82.9 °F 54.0 °F 29.84 in Calm     37 % 0.00 in
21:31 82.7 °F 56.6 °F 29.84 in Calm     41 % 0.00 in
21:32 82.6 °F 56.5 °F 29.84 in Calm     41 % 0.00 in
21:37 81.9 °F 55.2 °F 29.85 in Calm     40 % 0.00 in
21:42 81.4 °F 54.8 °F 29.85 in Calm     40 % 0.00 in
21:47 81.1 °F 55.2 °F 29.85 in NW 1.2 mph   41 % 0.00 in
21:52 81.0 °F 55.7 °F 29.85 in Calm     42 % 0.00 in
21:57 81.1 °F 54.5 °F 29.85 in NW 1.2 mph 1.2 mph 40 % 0.00 in
22:02 81.0 °F 54.4 °F 29.85 in NNW 1.2 mph 1.2 mph 40 % 0.00 in
22:07 81.0 °F 55.7 °F 29.85 in North 1.2 mph   42 % 0.00 in
22:12 80.8 °F 54.9 °F 29.85 in NNW 1.2 mph 1.2 mph 41 % 0.00 in
22:17 80.6 °F 54.7 °F 29.85 in NNW 1.2 mph   41 % 0.00 in
22:22 80.3 °F 55.8 °F 29.86 in NNW 1.2 mph 1.2 mph 43 % 0.00 in
22:27 80.1 °F 54.3 °F 29.86 in NW 1.2 mph   41 % 0.00 in
22:32 79.9 °F 56.0 °F 29.86 in Calm     44 % 0.00 in
22:37 79.1 °F 56.5 °F 29.86 in Calm     46 % 0.00 in
22:43 77.9 °F 56.0 °F 29.86 in Calm     47 % 0.00 in
22:48 77.2 °F 56.0 °F 29.86 in Calm     48 % 0.00 in
22:53 76.6 °F 56.6 °F 29.86 in Calm     50 % 0.00 in
22:58 75.8 °F 56.4 °F 29.86 in Calm     51 % 0.00 in
23:03 75.0 °F 56.2 °F 29.86 in Calm     52 % 0.00 in
23:08 74.4 °F 56.2 °F 29.86 in Calm     53 % 0.00 in
23:13 74.0 °F 56.3 °F 29.87 in Calm     54 % 0.00 in
23:18 73.7 °F 56.5 °F 29.87 in Calm     55 % 0.00 in
23:23 73.4 °F 57.7 °F 29.87 in Calm     58 % 0.00 in
23:28 73.0 °F 58.3 °F 29.87 in Calm     60 % 0.00 in
23:33 72.6 °F 58.8 °F 29.87 in Calm     62 % 0.00 in
23:38 72.4 °F 57.3 °F 29.87 in Calm     59 % 0.00 in
23:43 72.7 °F 56.1 °F 29.87 in Calm     56 % 0.00 in
23:48 72.9 °F 57.7 °F 29.87 in Calm     59 % 0.00 in
23:53 73.0 °F 56.9 °F 29.87 in Calm     57 % 0.00 in
23:58 72.9 °F 59.1 °F 29.87 in Calm     62 % 0.00 in
Park Place, Exeter, Tulare County, California, USA
Compliments of Weather Underground - 2.75 mb